Time;durP1;ratioP1;P1;durP2;ratioP2;P2;SDS_P1;SDS_P2;PMS_P1;PMS_P2;Temp;Humidity;BMP_temperature;BMP_pressure;BME280_temperature;BME280_humidity;BME280_pressure;Samples;Min_cycle;Max_cycle;Signal;HPM_P1;HPM_P2
2023/04/11 00:00:08;;;;;;;14.23;2.95;;;;;;;;;;4934467;29;20396;-62
2023/04/11 00:02:37;;;;;;;19.42;3.53;;;;;;;;;;4934741;29;20131;-61
2023/04/11 00:05:05;;;;;;;15.27;3.60;;;;;;;;;;4934819;29;20098;-61
2023/04/11 00:07:31;;;;;;;18.73;3.40;;;;;;;;;;4934595;29;20054;-61
2023/04/11 00:09:58;;;;;;;17.30;3.78;;;;;;;;;;4934493;29;20308;-62
2023/04/11 00:12:24;;;;;;;16.60;3.75;;;;;;;;;;4934674;29;20058;-62
2023/04/11 00:14:52;;;;;;;15.13;2.78;;;;;;;;;;4934258;29;20132;-62
2023/04/11 00:17:19;;;;;;;20.50;4.70;;;;;;;;;;4935629;29;20083;-61
2023/04/11 00:19:46;;;;;;;18.85;3.20;;;;;;;;;;4938472;29;20075;-61
2023/04/11 00:22:16;;;;;;;19.23;4.15;;;;;;;;;;4938458;29;20099;-62
2023/04/11 00:24:43;;;;;;;17.35;3.53;;;;;;;;;;4938281;29;20459;-61
2023/04/11 00:27:10;;;;;;;21.75;3.90;;;;;;;;;;4929590;29;20492;-62
2023/04/11 00:29:36;;;;;;;16.17;3.47;;;;;;;;;;4933699;29;20407;-62
2023/04/11 00:32:03;;;;;;;22.88;5.30;;;;;;;;;;4938328;29;20062;-61
2023/04/11 00:34:30;;;;;;;23.13;4.80;;;;;;;;;;4938048;29;20384;-62
2023/04/11 00:36:56;;;;;;;16.30;4.35;;;;;;;;;;4938308;29;20130;-62
2023/04/11 00:39:25;;;;;;;16.48;3.83;;;;;;;;;;4938043;29;20138;-62
2023/04/11 00:41:51;;;;;;;17.35;3.42;;;;;;;;;;4937866;29;20052;-62
2023/04/11 00:44:17;;;;;;;16.15;3.50;;;;;;;;;;4937876;29;20061;-62
2023/04/11 00:46:44;;;;;;;13.15;2.45;;;;;;;;;;4937778;29;20059;-62
2023/04/11 00:49:11;;;;;;;22.48;3.85;;;;;;;;;;4937923;29;20103;-62
2023/04/11 00:51:38;;;;;;;17.77;3.28;;;;;;;;;;4937810;29;20073;-62
2023/04/11 00:54:09;;;;;;;16.23;3.70;;;;;;;;;;4937797;29;20052;-62
2023/04/11 00:56:35;;;;;;;21.83;3.88;;;;;;;;;;4936842;29;20059;-62
2023/04/11 00:59:01;;;;;;;18.92;4.00;;;;;;;;;;4937809;29;20051;-62
2023/04/11 01:01:29;;;;;;;20.10;3.40;;;;;;;;;;4937801;29;20078;-62
2023/04/11 01:03:55;;;;;;;17.13;3.27;;;;;;;;;;4937268;29;20099;-62
2023/04/11 01:06:22;;;;;;;16.35;3.05;;;;;;;;;;4937575;29;20067;-62
2023/04/11 01:08:48;;;;;;;12.77;3.10;;;;;;;;;;4937323;29;20047;-62
2023/04/11 01:11:18;;;;;;;19.77;4.10;;;;;;;;;;4936509;29;20048;-61
2023/04/11 01:13:45;;;;;;;19.23;3.63;;;;;;;;;;4937554;29;20197;-62
2023/04/11 01:16:11;;;;;;;22.30;4.22;;;;;;;;;;4937499;29;20054;-62
2023/04/11 01:18:38;;;;;;;21.55;4.10;;;;;;;;;;4937352;29;20126;-62
2023/04/11 01:21:05;;;;;;;21.45;4.05;;;;;;;;;;4937209;29;20136;-62
2023/04/11 01:23:33;;;;;;;14.60;2.97;;;;;;;;;;4937449;29;20050;-62
2023/04/11 01:25:59;;;;;;;20.17;3.47;;;;;;;;;;4937071;29;20518;-62
2023/04/11 01:28:25;;;;;;;19.63;3.90;;;;;;;;;;4936596;29;20043;-62
2023/04/11 01:30:52;;;;;;;17.83;3.28;;;;;;;;;;4936656;29;20135;-62
2023/04/11 01:33:18;;;;;;;18.42;3.20;;;;;;;;;;4937093;29;20103;-62
2023/04/11 01:35:45;;;;;;;17.23;3.30;;;;;;;;;;4937244;29;20485;-62
2023/04/11 01:38:11;;;;;;;20.85;3.22;;;;;;;;;;4937139;29;20047;-62
2023/04/11 01:40:38;;;;;;;14.95;3.58;;;;;;;;;;4937222;29;20051;-62
2023/04/11 01:43:07;;;;;;;15.65;2.67;;;;;;;;;;4936750;29;20510;-62
2023/04/11 01:45:33;;;;;;;15.90;2.90;;;;;;;;;;4936978;29;20149;-62
2023/04/11 01:48:04;;;;;;;12.07;2.40;;;;;;;;;;4936804;29;20058;-62
2023/04/11 01:50:31;;;;;;;12.68;2.95;;;;;;;;;;4936563;29;20168;-62
2023/04/11 01:52:57;;;;;;;16.13;2.83;;;;;;;;;;4936943;29;20047;-62
2023/04/11 01:55:23;;;;;;;10.38;1.90;;;;;;;;;;4936784;29;20040;-62
2023/04/11 01:57:50;;;;;;;12.43;2.50;;;;;;;;;;4936930;29;20110;-62
2023/04/11 02:00:16;;;;;;;15.23;2.38;;;;;;;;;;4936767;29;20051;-62
2023/04/11 02:02:42;;;;;;;15.32;2.75;;;;;;;;;;4936718;29;20410;-62
2023/04/11 02:05:09;;;;;;;14.90;2.70;;;;;;;;;;4936302;29;20527;-62
2023/04/11 02:07:36;;;;;;;11.68;2.22;;;;;;;;;;4936456;29;20499;-62
2023/04/11 02:10:03;;;;;;;18.67;3.38;;;;;;;;;;4936519;29;20491;-62
2023/04/11 02:12:29;;;;;;;15.23;2.53;;;;;;;;;;4936589;29;20043;-62
2023/04/11 02:14:56;;;;;;;19.08;3.03;;;;;;;;;;4936383;29;20052;-62
2023/04/11 02:17:24;;;;;;;14.68;2.20;;;;;;;;;;4936115;29;20126;-62
2023/04/11 02:19:51;;;;;;;16.42;2.92;;;;;;;;;;4936474;29;20052;-62
2023/04/11 02:22:17;;;;;;;14.20;2.80;;;;;;;;;;4936471;29;20493;-62
2023/04/11 02:24:45;;;;;;;17.77;2.85;;;;;;;;;;4936400;29;20400;-62
2023/04/11 02:27:12;;;;;;;17.27;2.88;;;;;;;;;;4936068;29;20094;-62
2023/04/11 02:29:38;;;;;;;19.95;4.18;;;;;;;;;;4936207;29;20131;-62
2023/04/11 02:32:04;;;;;;;17.02;3.45;;;;;;;;;;4936234;29;20118;-62
2023/04/11 02:34:31;;;;;;;13.85;2.58;;;;;;;;;;4936069;29;20142;-62
2023/04/11 02:36:57;;;;;;;11.68;3.20;;;;;;;;;;4936100;29;20047;-62
2023/04/11 02:39:24;;;;;;;14.48;2.85;;;;;;;;;;4935944;29;20135;-62
2023/04/11 02:41:50;;;;;;;12.45;2.47;;;;;;;;;;4935708;29;20095;-62
2023/04/11 02:44:17;;;;;;;10.15;2.08;;;;;;;;;;4935812;29;20059;-62
2023/04/11 02:46:44;;;;;;;15.38;2.50;;;;;;;;;;4935901;29;20060;-62
2023/04/11 02:49:10;;;;;;;11.75;2.40;;;;;;;;;;4935860;29;20051;-62
2023/04/11 02:51:36;;;;;;;17.77;3.25;;;;;;;;;;4935788;29;20052;-62
2023/04/11 02:54:04;;;;;;;21.70;3.55;;;;;;;;;;4935903;29;20043;-63
2023/04/11 02:56:33;;;;;;;12.93;2.17;;;;;;;;;;4935583;29;20118;-63
2023/04/11 02:59:00;;;;;;;7.07;1.40;;;;;;;;;;4935787;29;20102;-64
2023/04/11 03:01:27;;;;;;;10.00;2.10;;;;;;;;;;4935587;29;20052;-64
2023/04/11 03:03:53;;;;;;;16.80;5.37;;;;;;;;;;4935417;29;20055;-64
2023/04/11 03:06:20;;;;;;;18.13;6.93;;;;;;;;;;4935325;29;20503;-64
2023/04/11 03:08:46;;;;;;;7.57;3.80;;;;;;;;;;4935429;29;20043;-64
2023/04/11 03:11:13;;;;;;;10.35;3.80;;;;;;;;;;4935248;29;20411;-64
2023/04/11 03:13:39;;;;;;;8.13;2.70;;;;;;;;;;4935108;29;20056;-64
2023/04/11 03:16:06;;;;;;;9.88;2.75;;;;;;;;;;4935465;29;20078;-65
2023/04/11 03:18:33;;;;;;;11.13;5.80;;;;;;;;;;4935470;29;20044;-65
2023/04/11 03:21:00;;;;;;;28.33;2.75;;;;;;;;;;4935034;29;20078;-65
2023/04/11 03:23:26;;;;;;;4.43;1.30;;;;;;;;;;4935064;29;20503;-65
2023/04/11 03:25:52;;;;;;;9.43;1.20;;;;;;;;;;4935239;29;20062;-65
2023/04/11 03:28:19;;;;;;;7.75;1.58;;;;;;;;;;4935252;29;20079;-66
2023/04/11 03:30:47;;;;;;;6.35;1.48;;;;;;;;;;4935201;29;20044;-66
2023/04/11 03:33:14;;;;;;;6.13;1.40;;;;;;;;;;4933734;29;20209;-66
2023/04/11 03:35:40;;;;;;;11.80;4.13;;;;;;;;;;4934834;29;20048;-66
2023/04/11 03:38:06;;;;;;;12.50;2.05;;;;;;;;;;4934730;29;20058;-66
2023/04/11 03:40:33;;;;;;;7.65;1.50;;;;;;;;;;4935096;29;20054;-66
2023/04/11 03:43:00;;;;;;;5.68;1.30;;;;;;;;;;4936013;29;20080;-66
2023/04/11 03:45:30;;;;;;;9.70;2.10;;;;;;;;;;4935072;29;20056;-66
2023/04/11 03:47:56;;;;;;;7.75;2.33;;;;;;;;;;4934896;29;20134;-66
2023/04/11 03:50:23;;;;;;;10.23;3.38;;;;;;;;;;4934740;29;20071;-66
2023/04/11 03:52:49;;;;;;;8.52;1.98;;;;;;;;;;4934335;29;20043;-66
2023/04/11 03:55:15;;;;;;;11.48;1.38;;;;;;;;;;4934821;29;20047;-66
2023/04/11 03:57:42;;;;;;;8.18;1.50;;;;;;;;;;4934543;29;20491;-66
2023/04/11 04:00:09;;;;;;;6.03;1.60;;;;;;;;;;4934461;29;20063;-66
2023/04/11 04:02:35;;;;;;;6.28;1.45;;;;;;;;;;4934750;29;20053;-66
2023/04/11 04:05:02;;;;;;;9.18;1.63;;;;;;;;;;4934303;29;20143;-66
2023/04/11 04:07:28;;;;;;;10.45;1.45;;;;;;;;;;4934526;29;20404;-66
2023/04/11 04:09:55;;;;;;;6.88;1.58;;;;;;;;;;4934327;29;20083;-66
2023/04/11 04:12:21;;;;;;;7.38;1.42;;;;;;;;;;4934717;29;20055;-66
2023/04/11 04:14:48;;;;;;;8.60;1.63;;;;;;;;;;4934580;29;20110;-66
2023/04/11 04:17:14;;;;;;;6.50;1.58;;;;;;;;;;4934509;29;20385;-66
2023/04/11 04:19:41;;;;;;;9.80;1.67;;;;;;;;;;4934373;29;20058;-66
2023/04/11 04:22:10;;;;;;;8.88;1.60;;;;;;;;;;4934373;29;20062;-67
2023/04/11 04:24:38;;;;;;;8.32;1.77;;;;;;;;;;4934262;29;20087;-67
2023/04/11 04:27:07;;;;;;;7.40;1.50;;;;;;;;;;4934643;29;20087;-67
2023/04/11 04:29:37;;;;;;;10.23;1.40;;;;;;;;;;4934172;29;20499;-66
2023/04/11 04:32:09;;;;;;;6.15;1.52;;;;;;;;;;4933435;29;20051;-67
2023/04/11 04:34:39;;;;;;;6.88;2.00;;;;;;;;;;4934248;29;20048;-66
2023/04/11 04:37:05;;;;;;;7.88;1.58;;;;;;;;;;4934203;29;20047;-66
2023/04/11 04:39:32;;;;;;;5.70;1.70;;;;;;;;;;4934110;29;20056;-67
2023/04/11 04:41:59;;;;;;;8.93;1.63;;;;;;;;;;4934442;29;20138;-66
2023/04/11 04:44:26;;;;;;;9.07;1.90;;;;;;;;;;4934113;29;20135;-67
2023/04/11 04:46:53;;;;;;;7.68;1.60;;;;;;;;;;4934294;29;20050;-66
2023/04/11 04:49:19;;;;;;;13.43;2.05;;;;;;;;;;4934264;29;20087;-67
2023/04/11 04:51:46;;;;;;;8.18;1.83;;;;;;;;;;4934229;29;20052;-66
2023/04/11 04:54:14;;;;;;;10.93;2.13;;;;;;;;;;4934109;29;20058;-66
2023/04/11 04:56:41;;;;;;;12.18;1.85;;;;;;;;;;4934166;29;20044;-67
2023/04/11 04:59:08;;;;;;;10.85;2.22;;;;;;;;;;4934107;29;20048;-66
2023/04/11 05:01:38;;;;;;;11.05;2.30;;;;;;;;;;4934057;29;20058;-66
2023/04/11 05:04:05;;;;;;;11.15;2.08;;;;;;;;;;4935902;29;20064;-66
2023/04/11 05:06:32;;;;;;;9.20;1.90;;;;;;;;;;4937290;29;20495;-66
2023/04/11 05:08:59;;;;;;;8.27;2.42;;;;;;;;;;4937701;29;20055;-66
2023/04/11 05:11:26;;;;;;;6.20;1.83;;;;;;;;;;4937625;29;20083;-67
2023/04/11 05:13:53;;;;;;;10.20;2.23;;;;;;;;;;4937646;29;20278;-66
2023/04/11 05:16:20;;;;;;;11.10;2.10;;;;;;;;;;4937422;29;20088;-67
2023/04/11 05:18:47;;;;;;;10.68;1.90;;;;;;;;;;4937289;29;20091;-66
2023/04/11 05:21:13;;;;;;;12.95;2.50;;;;;;;;;;4937471;29;20054;-66
2023/04/11 05:23:40;;;;;;;18.73;2.65;;;;;;;;;;4937450;29;20139;-67
2023/04/11 05:26:07;;;;;;;19.15;3.35;;;;;;;;;;4937112;29;20054;-66
2023/04/11 05:28:34;;;;;;;13.77;2.75;;;;;;;;;;4937271;29;20459;-66
2023/04/11 05:31:01;;;;;;;11.85;3.45;;;;;;;;;;4937317;29;20380;-66
2023/04/11 05:33:27;;;;;;;15.63;4.70;;;;;;;;;;4937406;29;20043;-66
2023/04/11 05:35:54;;;;;;;18.15;4.63;;;;;;;;;;4937019;29;20488;-66
2023/04/11 05:38:21;;;;;;;16.00;4.60;;;;;;;;;;4937194;29;20056;-66
2023/04/11 05:40:47;;;;;;;14.30;5.32;;;;;;;;;;4937105;29;20052;-66
2023/04/11 05:43:13;;;;;;;19.65;4.35;;;;;;;;;;4937166;29;20050;-66
2023/04/11 05:45:40;;;;;;;15.23;4.30;;;;;;;;;;4936844;29;20159;-66
2023/04/11 05:48:07;;;;;;;18.02;4.30;;;;;;;;;;4936721;29;20077;-66
2023/04/11 05:50:33;;;;;;;15.90;3.63;;;;;;;;;;4936892;29;20099;-66
2023/04/11 05:53:00;;;;;;;15.10;2.75;;;;;;;;;;4936697;29;20052;-66
2023/04/11 05:55:26;;;;;;;16.15;2.92;;;;;;;;;;4936821;29;20052;-66
2023/04/11 05:57:53;;;;;;;14.18;2.10;;;;;;;;;;4936689;29;20051;-66
2023/04/11 06:00:19;;;;;;;12.82;2.55;;;;;;;;;;4923139;29;20048;-66
2023/04/11 06:02:47;;;;;;;14.40;2.70;;;;;;;;;;4936434;29;20059;-66
2023/04/11 06:05:16;;;;;;;13.05;2.60;;;;;;;;;;4936306;29;20055;-66
2023/04/11 06:07:43;;;;;;;8.95;1.92;;;;;;;;;;4936410;29;20059;-66
2023/04/11 06:10:10;;;;;;;9.63;2.10;;;;;;;;;;4936580;29;20051;-66
2023/04/11 06:12:36;;;;;;;9.05;2.00;;;;;;;;;;4936648;29;20073;-66
2023/04/11 06:15:03;;;;;;;8.82;2.03;;;;;;;;;;4935570;29;20066;-66
2023/04/11 06:17:29;;;;;;;11.27;2.42;;;;;;;;;;4936172;29;20078;-66
2023/04/11 06:19:56;;;;;;;10.52;1.95;;;;;;;;;;4936573;29;20102;-66
2023/04/11 06:22:23;;;;;;;12.07;2.78;;;;;;;;;;4936166;29;20083;-66
2023/04/11 06:24:49;;;;;;;12.18;2.40;;;;;;;;;;4936381;29;20062;-66
2023/04/11 06:27:16;;;;;;;12.43;2.30;;;;;;;;;;4936159;29;20052;-66
2023/04/11 06:29:45;;;;;;;11.23;2.47;;;;;;;;;;4935934;29;20039;-66
2023/04/11 06:32:11;;;;;;;16.75;2.55;;;;;;;;;;4935967;29;20471;-66
2023/04/11 06:34:38;;;;;;;13.75;2.42;;;;;;;;;;4935876;29;20473;-66
2023/04/11 06:37:07;;;;;;;6.60;2.00;;;;;;;;;;4936081;29;20051;-66
2023/04/11 06:39:34;;;;;;;11.70;2.10;;;;;;;;;;4935801;29;20563;-66
2023/04/11 06:42:01;;;;;;;13.43;2.13;;;;;;;;;;4935834;29;20048;-66
2023/04/11 06:44:27;;;;;;;15.25;2.97;;;;;;;;;;4935689;29;20060;-66
2023/04/11 06:46:54;;;;;;;11.85;2.45;;;;;;;;;;4935937;29;20115;-66
2023/04/11 06:49:21;;;;;;;11.15;2.33;;;;;;;;;;4936040;29;20051;-66
2023/04/11 06:51:50;;;;;;;13.70;2.10;;;;;;;;;;4935595;29;20055;-66
2023/04/11 06:54:17;;;;;;;9.85;2.00;;;;;;;;;;4935617;29;20048;-66
2023/04/11 06:56:43;;;;;;;11.23;2.35;;;;;;;;;;4935751;29;20047;-66
2023/04/11 06:59:10;;;;;;;11.38;2.05;;;;;;;;;;4935493;29;20051;-66
2023/04/11 07:01:38;;;;;;;8.13;2.08;;;;;;;;;;4935659;29;20062;-66
2023/04/11 07:04:05;;;;;;;7.65;1.60;;;;;;;;;;4935177;29;20055;-66
2023/04/11 07:06:34;;;;;;;10.27;2.47;;;;;;;;;;4935637;29;20060;-66
2023/04/11 07:09:04;;;;;;;5.13;1.48;;;;;;;;;;4935463;29;20344;-66
2023/04/11 07:11:30;;;;;;;5.72;1.27;;;;;;;;;;4935222;29;20052;-66
2023/04/11 07:14:00;;;;;;;5.90;1.45;;;;;;;;;;4935487;29;20050;-66
2023/04/11 07:16:26;;;;;;;7.07;1.23;;;;;;;;;;4935180;29;20048;-66
2023/04/11 07:18:53;;;;;;;7.18;1.52;;;;;;;;;;4935411;29;20130;-66
2023/04/11 07:21:20;;;;;;;7.15;1.20;;;;;;;;;;4935166;29;20059;-66
2023/04/11 07:23:47;;;;;;;7.25;1.40;;;;;;;;;;4935367;29;20062;-66
2023/04/11 07:26:15;;;;;;;5.72;1.17;;;;;;;;;;4934850;29;20051;-66
2023/04/11 07:28:43;;;;;;;9.93;2.05;;;;;;;;;;4934959;29;20098;-66
2023/04/11 07:31:10;;;;;;;7.18;1.17;;;;;;;;;;4935122;29;20407;-66
2023/04/11 07:33:37;;;;;;;9.80;1.67;;;;;;;;;;4934960;29;20496;-66
2023/04/11 07:36:04;;;;;;;8.82;1.70;;;;;;;;;;4934820;29;20524;-66
2023/04/11 07:38:32;;;;;;;12.15;1.88;;;;;;;;;;4935049;29;20114;-66
2023/04/11 07:41:00;;;;;;;7.28;1.10;;;;;;;;;;4935150;29;20392;-66
2023/04/11 07:43:26;;;;;;;;;;;;;;;;;;4935228;29;20500;-66
2023/04/11 07:45:53;;;;;;;8.43;1.60;;;;;;;;;;4934504;29;19993;-66
2023/04/11 07:48:23;;;;;;;13.67;1.90;;;;;;;;;;4934787;29;20563;-66
2023/04/11 07:50:49;;;;;;;8.63;1.52;;;;;;;;;;4920882;29;20496;-66
2023/04/11 07:53:16;;;;;;;6.55;1.65;;;;;;;;;;4921381;29;20526;-66
2023/04/11 07:55:42;;;;;;;8.55;1.20;;;;;;;;;;4934910;29;20047;-66
2023/04/11 07:58:08;;;;;;;8.88;1.48;;;;;;;;;;4934825;29;20055;-66
2023/04/11 08:00:35;;;;;;;6.75;1.35;;;;;;;;;;4926328;29;20424;-66
2023/04/11 08:03:04;;;;;;;7.38;1.48;;;;;;;;;;4914987;29;20469;-66
2023/04/11 08:05:32;;;;;;;8.48;1.20;;;;;;;;;;4918514;29;20121;-66
2023/04/11 08:07:58;;;;;;;7.50;1.40;;;;;;;;;;4932681;29;20047;-67
2023/04/11 08:10:25;;;;;;;6.75;1.40;;;;;;;;;;4913023;29;20380;-66
2023/04/11 08:12:51;;;;;;;9.13;1.27;;;;;;;;;;4933673;29;20094;-66
2023/04/11 08:15:18;;;;;;;7.07;1.60;;;;;;;;;;4921625;29;20178;-66
2023/04/11 08:17:45;;;;;;;14.05;2.97;;;;;;;;;;4923765;29;20050;-66
2023/04/11 08:20:12;;;;;;;6.40;1.80;;;;;;;;;;4934365;29;20102;-66
2023/04/11 08:22:40;;;;;;;8.40;1.45;;;;;;;;;;4934539;29;20332;-66
2023/04/11 08:25:08;;;;;;;6.10;1.35;;;;;;;;;;4934214;29;20139;-66
2023/04/11 08:27:34;;;;;;;10.18;1.40;;;;;;;;;;4928251;29;20051;-66
2023/04/11 08:30:02;;;;;;;8.32;1.73;;;;;;;;;;4929203;29;20062;-66
2023/04/11 08:32:28;;;;;;;7.47;1.77;;;;;;;;;;4908002;29;20138;-66
2023/04/11 08:34:55;;;;;;;5.28;1.73;;;;;;;;;;4925514;29;20134;-67
2023/04/11 08:37:21;;;;;;;8.32;1.80;;;;;;;;;;4923502;29;20063;-67
2023/04/11 08:39:47;;;;;;;8.77;1.75;;;;;;;;;;4937285;29;20048;-67
2023/04/11 08:42:21;;;;;;;7.72;1.85;;;;;;;;;;4938129;29;20400;-67
2023/04/11 08:44:53;;;;;;;8.35;1.65;;;;;;;;;;4937860;29;20054;-67
2023/04/11 08:47:19;;;;;;;5.78;1.55;;;;;;;;;;4930587;29;20101;-67
2023/04/11 08:49:46;;;;;;;8.77;1.80;;;;;;;;;;4927506;29;20136;-67
2023/04/11 08:52:13;;;;;;;6.65;1.90;;;;;;;;;;4935448;29;20512;-67
2023/04/11 08:54:39;;;;;;;6.93;1.92;;;;;;;;;;4937139;29;20048;-67
2023/04/11 08:57:05;;;;;;;9.52;1.80;;;;;;;;;;4937185;29;20054;-67
2023/04/11 08:59:32;;;;;;;8.93;1.52;;;;;;;;;;4936866;29;20055;-66
2023/04/11 09:02:05;;;;;;;6.10;1.53;;;;;;;;;;4929584;29;20130;-66
2023/04/11 09:04:39;;;;;;;9.65;1.95;;;;;;;;;;4917989;29;20063;-66
2023/04/11 09:07:05;;;;;;;9.07;1.73;;;;;;;;;;4935705;29;20107;-66
2023/04/11 09:09:33;;;;;;;12.45;2.42;;;;;;;;;;4936789;29;20055;-66
2023/04/11 09:12:00;;;;;;;8.82;2.50;;;;;;;;;;4937205;29;20052;-67
2023/04/11 09:14:26;;;;;;;10.65;1.90;;;;;;;;;;4937613;29;20469;-66
2023/04/11 09:17:03;;;;;;;7.72;1.70;;;;;;;;;;4937328;29;20052;-66
2023/04/11 09:19:30;;;;;;;10.70;1.85;;;;;;;;;;4937568;29;20082;-66
2023/04/11 09:22:01;;;;;;;7.88;1.70;;;;;;;;;;4937290;29;20051;-66
2023/04/11 09:24:28;;;;;;;11.23;1.98;;;;;;;;;;4937249;29;20099;-66
2023/04/11 09:27:08;;;;;;;11.15;2.53;;;;;;;;;;4937464;29;20183;-66
2023/04/11 09:29:38;;;;;;;10.27;2.22;;;;;;;;;;4936075;29;20050;-66
2023/04/11 09:32:05;;;;;;;9.55;2.08;;;;;;;;;;4937253;29;20195;-66
2023/04/11 09:34:36;;;;;;;9.37;1.80;;;;;;;;;;4919207;29;20054;-66
2023/04/11 09:37:03;;;;;;;9.23;1.83;;;;;;;;;;4936723;29;20140;-66
2023/04/11 09:39:31;;;;;;;11.70;1.67;;;;;;;;;;4936960;29;20527;-66
2023/04/11 09:41:57;;;;;;;10.50;2.05;;;;;;;;;;4933162;29;20052;-66
2023/04/11 09:44:37;;;;;;;8.27;1.80;;;;;;;;;;4928414;29;20065;-67
2023/04/11 09:47:03;;;;;;;12.77;1.80;;;;;;;;;;4934729;29;20079;-66
2023/04/11 09:49:31;;;;;;;8.90;2.47;;;;;;;;;;4925169;29;20059;-66
2023/04/11 09:51:58;;;;;;;8.02;1.55;;;;;;;;;;4936743;29;20126;-66
2023/04/11 09:54:26;;;;;;;9.97;1.90;;;;;;;;;;4926195;29;20090;-66
2023/04/11 09:56:52;;;;;;;9.40;1.98;;;;;;;;;;4936574;29;20047;-66
2023/04/11 09:59:20;;;;;;;8.65;2.35;;;;;;;;;;4936562;29;20056;-66
2023/04/11 10:01:47;;;;;;;8.70;2.05;;;;;;;;;;4936873;29;20127;-66
2023/04/11 10:04:14;;;;;;;10.65;1.92;;;;;;;;;;4936252;29;20418;-66
2023/04/11 10:06:46;;;;;;;10.38;1.77;;;;;;;;;;4936720;29;20044;-66
2023/04/11 10:09:13;;;;;;;10.00;2.30;;;;;;;;;;4936808;29;20056;-66
2023/04/11 10:11:43;;;;;;;5.93;1.55;;;;;;;;;;4936212;29;20517;-66
2023/04/11 10:14:28;;;;;;;9.68;2.60;;;;;;;;;;4936377;29;20535;-66
2023/04/11 10:17:11;;;;;;;9.88;1.90;;;;;;;;;;4936206;29;20048;-66
2023/04/11 10:19:37;;;;;;;9.27;2.45;;;;;;;;;;4936547;29;20122;-66
2023/04/11 10:22:04;;;;;;;11.13;2.05;;;;;;;;;;4936486;29;20052;-66
2023/04/11 10:24:30;;;;;;;8.80;2.17;;;;;;;;;;4936095;29;20087;-66
2023/04/11 10:26:58;;;;;;;10.35;1.88;;;;;;;;;;4936092;29;20047;-66
2023/04/11 10:29:28;;;;;;;6.53;1.77;;;;;;;;;;4936313;29;20087;-66
2023/04/11 10:32:10;;;;;;;8.85;1.65;;;;;;;;;;4935954;29;20484;-66
2023/04/11 10:34:38;;;;;;;9.50;1.88;;;;;;;;;;4935935;29;20519;-66
2023/04/11 10:37:04;;;;;;;;;;;;;;;;;;4936688;29;20130;-66
2023/04/11 10:39:52;;;;;;;7.53;1.63;;;;;;;;;;4936072;29;20540;-66
2023/04/11 10:42:30;;;;;;;8.38;2.03;;;;;;;;;;4935877;29;20131;-66
2023/04/11 10:45:14;;;;;;;10.32;1.60;;;;;;;;;;4935742;29;20083;-68
2023/04/11 10:47:41;;;;;;;9.13;1.77;;;;;;;;;;4935991;29;20058;-66
2023/04/11 10:50:26;;;;;;;7.38;1.60;;;;;;;;;;4935837;29;20055;-67
2023/04/11 10:52:55;;;;;;;5.65;1.20;;;;;;;;;;4929312;29;20047;-67
2023/04/11 10:55:22;;;;;;;5.40;1.55;;;;;;;;;;4931558;29;20099;-66
2023/04/11 10:58:07;;;;;;;8.02;1.98;;;;;;;;;;4916837;29;20052;-67
2023/04/11 11:00:45;;;;;;;7.30;1.83;;;;;;;;;;4925681;29;20050;-67
2023/04/11 11:03:15;;;;;;;7.43;2.00;;;;;;;;;;4934982;29;20055;-67
2023/04/11 11:05:42;;;;;;;14.27;1.90;;;;;;;;;;4931784;29;20050;-67
2023/04/11 11:08:09;;;;;;;17.48;2.97;;;;;;;;;;4928833;29;20052;-67
2023/04/11 11:10:42;;;;;;;13.77;2.90;;;;;;;;;;4927276;29;20090;-68
2023/04/11 11:13:09;;;;;;;14.50;2.63;;;;;;;;;;4935088;29;20055;-68
2023/04/11 11:15:38;;;;;;;14.02;2.60;;;;;;;;;;4935468;29;20055;-68
2023/04/11 11:18:08;;;;;;;10.70;2.70;;;;;;;;;;4935430;29;20053;-68
2023/04/11 11:20:36;;;;;;;14.82;2.90;;;;;;;;;;4935240;29;20055;-68
2023/04/11 11:23:03;;;;;;;7.85;1.70;;;;;;;;;;4933844;29;20070;-69
2023/04/11 11:25:30;;;;;;;;;;;;;;;;;;4921329;29;20052;-68
2023/04/11 11:28:06;;;;;;;6.03;1.58;;;;;;;;;;4924335;29;19934;-69
2023/04/11 11:30:33;;;;;;;5.30;1.42;;;;;;;;;;4935290;29;20131;-69
2023/04/11 11:33:12;;;;;;;7.75;1.38;;;;;;;;;;4934921;29;20448;-69
2023/04/11 11:35:39;;;;;;;5.32;1.13;;;;;;;;;;4934946;29;20058;-69
2023/04/11 11:38:05;;;;;;;5.13;1.10;;;;;;;;;;4934795;29;20052;-69
2023/04/11 11:40:32;;;;;;;7.88;1.60;;;;;;;;;;4934787;29;20862;-69
2023/04/11 11:42:58;;;;;;;8.10;1.50;;;;;;;;;;4935116;29;20051;-68
2023/04/11 11:45:25;;;;;;;11.57;1.88;;;;;;;;;;4934754;29;20051;-69
2023/04/11 11:47:56;;;;;;;9.02;1.60;;;;;;;;;;4934807;29;20051;-68
2023/04/11 11:50:30;;;;;;;9.15;1.83;;;;;;;;;;4934953;29;20052;-69
2023/04/11 11:53:14;;;;;;;11.48;2.20;;;;;;;;;;4934499;29;20658;-69
2023/04/11 11:55:41;;;;;;;11.15;2.70;;;;;;;;;;4934791;29;20064;-68
2023/04/11 11:58:08;;;;;;;11.85;1.92;;;;;;;;;;4934960;29;20083;-69
2023/04/11 12:00:39;;;;;;;11.52;2.08;;;;;;;;;;4933642;29;20082;-69
2023/04/11 12:03:08;;;;;;;11.25;1.83;;;;;;;;;;4934680;29;20055;-68
2023/04/11 12:05:35;;;;;;;11.55;2.75;;;;;;;;;;4934742;29;20075;-68
2023/04/11 12:08:03;;;;;;;11.30;2.60;;;;;;;;;;4934484;29;20104;-68
2023/04/11 12:10:36;;;;;;;12.60;2.17;;;;;;;;;;4934490;29;20060;-69
2023/04/11 12:13:10;;;;;;;14.38;2.50;;;;;;;;;;4934158;29;20159;-69
2023/04/11 12:15:36;;;;;;;14.73;2.80;;;;;;;;;;4934764;29;20047;-69
2023/04/11 12:18:04;;;;;;;15.00;2.85;;;;;;;;;;4934333;29;20144;-68
2023/04/11 12:20:31;;;;;;;20.08;2.58;;;;;;;;;;4934759;29;20052;-69
2023/04/11 12:22:57;;;;;;;22.48;2.40;;;;;;;;;;4934330;29;20503;-69
2023/04/11 12:25:27;;;;;;;15.75;2.42;;;;;;;;;;4934704;29;20122;-70
2023/04/11 12:27:53;;;;;;;18.90;3.03;;;;;;;;;;4934479;29;20052;-70
2023/04/11 12:30:20;;;;;;;13.35;2.60;;;;;;;;;;4934327;29;20139;-70
2023/04/11 12:32:46;;;;;;;18.00;2.83;;;;;;;;;;4934421;29;20119;-70
2023/04/11 12:35:13;;;;;;;13.27;2.33;;;;;;;;;;4934550;29;20126;-71
2023/04/11 12:37:40;;;;;;;16.73;2.97;;;;;;;;;;4934281;29;20058;-71
2023/04/11 12:40:10;;;;;;;12.35;2.53;;;;;;;;;;4934365;29;20107;-71
2023/04/11 12:42:37;;;;;;;13.10;1.92;;;;;;;;;;4934202;29;20062;-70
2023/04/11 12:45:18;;;;;;;15.63;2.22;;;;;;;;;;4934273;29;20055;-71
2023/04/11 12:47:45;;;;;;;14.30;2.85;;;;;;;;;;4934149;29;20063;-68
2023/04/11 12:50:11;;;;;;;12.15;2.38;;;;;;;;;;4934246;29;20114;-71
2023/04/11 12:52:38;;;;;;;13.40;2.00;;;;;;;;;;4933995;29;20060;-71
2023/04/11 12:55:04;;;;;;;15.02;3.05;;;;;;;;;;4933011;29;20477;-72
2023/04/11 12:57:31;;;;;;;12.52;2.90;;;;;;;;;;4934368;29;20044;-73
2023/04/11 12:59:58;;;;;;;13.25;2.20;;;;;;;;;;4934120;29;20058;-72
2023/04/11 13:02:24;;;;;;;14.38;2.63;;;;;;;;;;4920255;29;20135;-72
2023/04/11 13:04:53;;;;;;;15.77;2.90;;;;;;;;;;4933899;29;20056;-71
2023/04/11 13:07:20;;;;;;;10.90;2.50;;;;;;;;;;4932703;29;20056;-72
2023/04/11 13:09:47;;;;;;;16.45;2.95;;;;;;;;;;4932750;29;20070;-73
2023/04/11 13:12:14;;;;;;;12.27;2.40;;;;;;;;;;4926455;29;20051;-73
2023/04/11 13:14:40;;;;;;;8.20;2.03;;;;;;;;;;4932989;29;20059;-74
2023/04/11 13:17:08;;;;;;;10.45;1.88;;;;;;;;;;4934105;29;20130;-73
2023/04/11 13:19:34;;;;;;;10.85;2.08;;;;;;;;;;4933828;29;20050;-73
2023/04/11 13:22:01;;;;;;;9.98;2.00;;;;;;;;;;4933844;29;20518;-72
2023/04/11 13:24:28;;;;;;;14.50;2.17;;;;;;;;;;4926661;29;20052;-72
2023/04/11 13:26:54;;;;;;;10.75;1.70;;;;;;;;;;4931303;29;20427;-72
2023/04/11 13:29:20;;;;;;;14.15;1.90;;;;;;;;;;4937138;29;20488;-72
2023/04/11 13:31:48;;;;;;;8.25;1.30;;;;;;;;;;4937357;29;20134;-72
2023/04/11 13:34:15;;;;;;;24.90;2.83;;;;;;;;;;4937135;29;20135;-72
2023/04/11 13:36:41;;;;;;;7.15;1.70;;;;;;;;;;4937031;29;20555;-71
2023/04/11 13:39:08;;;;;;;8.52;1.90;;;;;;;;;;4937013;29;20055;-71
2023/04/11 13:41:35;;;;;;;21.42;2.22;;;;;;;;;;4936935;29;20580;-72
2023/04/11 13:44:01;;;;;;;10.77;1.75;;;;;;;;;;4937193;29;20062;-71
2023/04/11 13:46:27;;;;;;;7.97;1.73;;;;;;;;;;4937179;29;20055;-72
2023/04/11 13:48:54;;;;;;;12.43;2.05;;;;;;;;;;4936843;29;20389;-72
2023/04/11 13:51:20;;;;;;;8.60;1.80;;;;;;;;;;4936694;29;20054;-72
2023/04/11 13:53:47;;;;;;;12.18;2.00;;;;;;;;;;4936589;29;20491;-73
2023/04/11 13:56:13;;;;;;;9.30;1.58;;;;;;;;;;4936871;29;20079;-74
2023/04/11 13:58:40;;;;;;;8.23;1.80;;;;;;;;;;4936939;29;20044;-73
2023/04/11 14:01:07;;;;;;;9.80;2.33;;;;;;;;;;4935477;29;20090;-73
2023/04/11 14:03:33;;;;;;;13.38;2.00;;;;;;;;;;4936301;29;20075;-73
2023/04/11 14:06:00;;;;;;;17.98;2.38;;;;;;;;;;4936543;29;20079;-71
2023/04/11 14:08:27;;;;;;;8.30;1.73;;;;;;;;;;4936400;29;20079;-72
2023/04/11 14:10:54;;;;;;;24.80;2.83;;;;;;;;;;4936726;29;20064;-73
2023/04/11 14:13:20;;;;;;;5.55;1.25;;;;;;;;;;4936407;29;20048;-74
2023/04/11 14:15:47;;;;;;;6.90;2.08;;;;;;;;;;4927839;29;20072;-74
2023/04/11 14:18:30;;;;;;;8.23;1.48;;;;;;;;;;4927526;29;20047;-74
2023/04/11 14:20:59;;;;;;;9.02;1.65;;;;;;;;;;4928049;29;20168;-74
2023/04/11 14:23:27;;;;;;;10.43;1.90;;;;;;;;;;4924877;29;20052;-71
2023/04/11 14:25:53;;;;;;;13.23;1.93;;;;;;;;;;4920501;29;20047;-71
2023/04/11 14:28:20;;;;;;;7.03;1.70;;;;;;;;;;4927220;29;20291;-71
2023/04/11 14:30:46;;;;;;;11.75;2.15;;;;;;;;;;4928458;29;20135;-72
2023/04/11 14:33:13;;;;;;;12.02;2.22;;;;;;;;;;4925767;29;20048;-70
2023/04/11 14:35:41;;;;;;;11.45;2.30;;;;;;;;;;4935095;29;20051;-72
2023/04/11 14:38:07;;;;;;;8.18;1.85;;;;;;;;;;4935795;29;20090;-72